Time;durP1;ratioP1;P1;durP2;ratioP2;P2;SDS_P1;SDS_P2;PMS_P1;PMS_P2;Temp;Humidity;BMP_temperature;BMP_pressure;BME280_temperature;BME280_humidity;BME280_pressure;Samples;Min_cycle;Max_cycle;Signal;HPM_P1;HPM_P2
2022/10/06 00:01:29;;;;;;;14.20;6.70;;;;;;;10.55;99.87;99747.79;105156;1268;75514;-75
2022/10/06 00:04:17;;;;;;;12.00;6.30;;;;;;;10.53;99.71;99744.97;105094;1268;69153;-75
2022/10/06 00:07:05;;;;;;;12.60;6.80;;;;;;;10.50;99.28;99748.75;105398;1267;72904;-75
2022/10/06 00:09:53;;;;;;;13.10;6.50;;;;;;;10.47;99.87;99745.95;105171;1268;60575;-77
2022/10/06 00:12:48;;;;;;;11.30;5.80;;;;;;;10.46;99.67;99741.41;105166;1271;62046;-74
2022/10/06 00:15:36;;;;;;;12.60;6.30;;;;;;;10.43;99.45;99737.95;105228;1268;73990;-74
2022/10/06 00:18:26;;;;;;;14.00;6.90;;;;;;;10.40;99.40;99746.72;105380;1267;69531;-75
2022/10/06 00:21:15;;;;;;;12.00;6.30;;;;;;;10.36;99.80;99748.11;105290;1268;72851;-73
2022/10/06 00:24:05;;;;;;;12.30;6.00;;;;;;;10.32;99.82;99750.16;105042;1268;61183;-74
2022/10/06 00:26:53;;;;;;;14.80;6.00;;;;;;;10.30;100.00;99747.13;105490;1268;60496;-73
2022/10/06 00:29:43;;;;;;;13.20;6.00;;;;;;;10.27;100.00;99747.00;105250;1268;73034;-73
2022/10/06 00:32:31;;;;;;;11.20;5.90;;;;;;;10.24;100.00;99741.44;105167;1268;70118;-73
2022/10/06 00:35:20;;;;;;;14.40;6.10;;;;;;;10.20;100.00;99736.41;105095;1268;74454;-74
2022/10/06 00:38:15;;;;;;;12.10;6.50;;;;;;;10.17;100.00;99737.84;105116;1268;61369;-73
2022/10/06 00:41:03;;;;;;;13.50;6.50;;;;;;;10.14;100.00;99738.48;105358;1268;61860;-73
2022/10/06 00:43:55;;;;;;;14.10;6.70;;;;;;;10.12;100.00;99738.85;105167;1268;74509;-74
2022/10/06 00:46:48;;;;;;;12.70;6.80;;;;;;;10.11;100.00;99738.23;105103;1267;68403;-72
2022/10/06 00:49:38;;;;;;;12.60;6.10;;;;;;;10.09;100.00;99741.94;105293;1268;73955;-74
2022/10/06 00:52:30;;;;;;;11.60;6.20;;;;;;;10.07;100.00;99745.84;105240;1268;61320;-75
2022/10/06 00:55:19;;;;;;;12.60;6.70;;;;;;;10.04;100.00;99742.42;105163;1268;60482;-73
2022/10/06 00:58:09;;;;;;;13.40;7.20;;;;;;;10.02;100.00;99736.59;105125;1268;75835;-74
2022/10/06 01:00:58;;;;;;;16.90;7.20;;;;;;;10.01;100.00;99737.80;105163;1268;68101;-75
2022/10/06 01:03:54;;;;;;;12.10;6.10;;;;;;;9.98;100.00;99727.73;105074;1268;74730;-74
2022/10/06 01:06:56;;;;;;;12.80;6.30;;;;;;;9.96;100.00;99725.77;105100;1268;60458;-74
2022/10/06 01:09:45;;;;;;;16.00;6.70;;;;;;;9.94;100.00;99722.89;105126;1268;62344;-74
2022/10/06 01:12:33;;;;;;;11.50;6.30;;;;;;;9.93;100.00;99723.89;105273;1268;75627;-74
2022/10/06 01:15:22;;;;;;;17.40;6.50;;;;;;;9.91;100.00;99721.19;105013;1268;68842;-72
2022/10/06 01:18:16;;;;;;;11.30;6.10;;;;;;;9.91;100.00;99720.88;105124;1268;71621;-74
2022/10/06 01:21:19;;;;;;;13.40;6.40;;;;;;;9.89;100.00;99718.48;105224;1267;60489;-74
2022/10/06 01:24:07;;;;;;;13.80;7.00;;;;;;;9.88;100.00;99722.48;105382;1268;61543;-75
2022/10/06 01:26:59;;;;;;;13.10;6.50;;;;;;;9.87;100.00;99724.66;105248;1268;75375;-75
2022/10/06 01:29:54;;;;;;;11.20;6.40;;;;;;;9.86;100.00;99724.58;105326;1267;69157;-75
2022/10/06 01:32:42;;;;;;;13.70;6.60;;;;;;;9.86;100.00;99723.89;105327;1267;74806;-73
2022/10/06 01:35:30;;;;;;;12.40;6.00;;;;;;;9.85;100.00;99722.16;105132;1267;61471;-75
2022/10/06 01:38:20;;;;;;;11.40;6.20;;;;;;;9.85;100.00;99727.67;105409;1268;62094;-75
2022/10/06 01:41:12;;;;;;;13.30;6.40;;;;;;;-128.00;-1.00;-1.00;102701;1270;1012925;-74
2022/10/06 01:44:00;;;;;;;10.70;5.20;;;;;;;-128.00;-1.00;-1.00;102569;1267;1013229;-74
2022/10/06 01:46:48;;;;;;;11.70;6.40;;;;;;;-128.00;-1.00;-1.00;102564;1268;1013056;-74
2022/10/06 01:49:36;;;;;;;15.00;6.60;;;;;;;-128.00;-1.00;-1.00;102546;1268;1010868;-75
2022/10/06 01:52:25;;;;;;;11.20;5.80;;;;;;;-128.00;-1.00;-1.00;102708;1267;1011717;-74
2022/10/06 01:55:13;;;;;;;11.60;5.70;;;;;;;-128.00;-1.00;-1.00;102556;1268;1013688;-75
2022/10/06 01:58:01;;;;;;;12.80;5.80;;;;;;;-128.00;-1.00;-1.00;103038;1267;1014306;-74
2022/10/06 02:00:49;;;;;;;12.80;5.60;;;;;;;-128.00;-1.00;-1.00;102697;1267;1012960;-75
2022/10/06 02:03:39;;;;;;;11.10;5.60;;;;;;;-128.00;-1.00;-1.00;102689;1268;1010122;-75
2022/10/06 02:06:28;;;;;;;12.80;6.30;;;;;;;-128.00;-1.00;-1.00;102581;1268;1011226;-74
2022/10/06 02:09:17;;;;;;;12.80;6.30;;;;;;;-128.00;-1.00;-1.00;102789;1267;1012913;-76
2022/10/06 02:12:05;;;;;;;9.90;5.20;;;;;;;-128.00;-1.00;-1.00;102489;1268;1012486;-75
2022/10/06 02:14:58;;;;;;;13.50;5.50;;;;;;;-128.00;-1.00;-1.00;102556;1267;1014124;-77
2022/10/06 02:17:47;;;;;;;10.80;6.10;;;;;;;-128.00;-1.00;-1.00;102385;1268;1009668;-76
2022/10/06 02:20:35;;;;;;;10.50;5.90;;;;;;;10.14;100.00;99721.86;105236;1267;60956;-74
2022/10/06 02:23:23;;;;;;;11.40;5.60;;;;;;;10.14;100.00;99721.28;105158;1267;73935;-76
2022/10/06 02:26:16;;;;;;;11.10;5.70;;;;;;;10.16;100.00;99721.01;105261;1267;69651;-74
2022/10/06 02:29:05;;;;;;;11.40;5.90;;;;;;;-17.47;79.80;79778.09;104668;1268;1002874;-73
2022/10/06 02:31:53;;;;;;;12.60;5.70;;;;;;;-128.00;-1.00;-1.00;102623;1267;1010327;-75
2022/10/06 02:34:42;;;;;;;14.20;5.80;;;;;;;-128.00;-1.00;-1.00;102809;1267;1012098;-74
2022/10/06 02:37:31;;;;;;;11.60;5.50;;;;;;;-128.00;-1.00;-1.00;102910;1267;1012952;-75
2022/10/06 02:40:20;;;;;;;10.80;6.00;;;;;;;-128.00;-1.00;-1.00;102891;1268;1015623;-77
2022/10/06 02:43:08;;;;;;;13.30;5.90;;;;;;;-128.00;-1.00;-1.00;102769;1267;1012950;-76
2022/10/06 02:46:00;;;;;;;11.40;5.70;;;;;;;-128.00;-1.00;-1.00;102728;1267;1009736;-75
2022/10/06 02:48:48;;;;;;;15.10;6.30;;;;;;;-128.00;-1.00;-1.00;102506;1268;1010852;-75
2022/10/06 02:51:37;;;;;;;10.70;5.70;;;;;;;-128.00;-1.00;-1.00;102568;1267;1013008;-73
2022/10/06 02:54:25;;;;;;;10.70;5.30;;;;;;;-128.00;-1.00;-1.00;102665;1268;1012950;-75
2022/10/06 02:57:14;;;;;;;10.20;5.30;;;;;;;-128.00;-1.00;-1.00;102578;1267;1014668;-76
2022/10/06 03:00:07;;;;;;;11.90;5.80;;;;;;;-128.00;-1.00;-1.00;102654;1268;1009819;-75
2022/10/06 03:02:55;;;;;;;10.80;5.70;;;;;;;-128.00;-1.00;-1.00;102461;1268;1011264;-77
2022/10/06 03:05:43;;;;;;;11.00;5.30;;;;;;;-128.00;-1.00;-1.00;102480;1268;1013541;-75
2022/10/06 03:08:32;;;;;;;11.30;5.80;;;;;;;-128.00;-1.00;-1.00;102563;1268;1012629;-75
2022/10/06 03:11:24;;;;;;;13.40;6.00;;;;;;;-128.00;-1.00;-1.00;102608;1267;1013263;-75
2022/10/06 03:14:13;;;;;;;13.30;5.50;;;;;;;-128.00;-1.00;-1.00;102605;1268;1010237;-74
2022/10/06 03:17:08;;;;;;;11.60;5.90;;;;;;;-128.00;-1.00;-1.00;102900;1271;1011045;-74
2022/10/06 03:20:01;;;;;;;11.80;5.90;;;;;;;-128.00;-1.00;-1.00;102673;1267;1012563;-75
2022/10/06 03:22:53;;;;;;;10.20;5.40;;;;;;;-128.00;-1.00;-1.00;102775;1267;1012413;-74
2022/10/06 03:25:41;;;;;;;10.20;5.40;;;;;;;-128.00;-1.00;-1.00;102368;1268;1012675;-74
2022/10/06 03:28:31;;;;;;;10.90;5.60;;;;;;;-128.00;-1.00;-1.00;102835;1267;1010159;-73
2022/10/06 03:31:20;;;;;;;12.80;5.80;;;;;;;-128.00;-1.00;-1.00;102911;1267;1010950;-73
2022/10/06 03:34:09;;;;;;;13.20;6.20;;;;;;;-128.00;-1.00;-1.00;102962;1267;1015881;-73
2022/10/06 03:36:58;;;;;;;11.80;6.20;;;;;;;-128.00;-1.00;-1.00;102552;1268;1013218;-74
2022/10/06 03:39:46;;;;;;;13.00;5.60;;;;;;;-128.00;-1.00;-1.00;102761;1267;1012885;-73
2022/10/06 03:42:34;;;;;;;11.00;6.00;;;;;;;-128.00;-1.00;-1.00;102978;1267;1009947;-74
2022/10/06 03:45:24;;;;;;;9.70;5.10;;;;;;;-128.00;-1.00;-1.00;102739;1267;1011894;-72
2022/10/06 03:48:12;;;;;;;10.80;5.70;;;;;;;-128.00;-1.00;-1.00;102631;1268;1012943;-75
2022/10/06 03:51:06;;;;;;;10.40;5.70;;;;;;;-128.00;-1.00;-1.00;102605;1267;1012343;-75
2022/10/06 03:53:55;;;;;;;12.20;5.70;;;;;;;-128.00;-1.00;-1.00;102801;1267;1014036;-73
2022/10/06 03:56:42;;;;;;;11.10;5.20;;;;;;;-128.00;-1.00;-1.00;102509;1267;1010211;-74
2022/10/06 03:59:33;;;;;;;10.70;5.20;;;;;;;-128.00;-1.00;-1.00;102552;1267;1010636;-74
2022/10/06 04:02:22;;;;;;;9.70;4.90;;;;;;;-128.00;-1.00;-1.00;102847;1267;1013409;-74
2022/10/06 04:05:10;;;;;;;10.70;5.70;;;;;;;-128.00;-1.00;-1.00;102568;1267;1012822;-73
2022/10/06 04:07:58;;;;;;;12.80;4.90;;;;;;;-128.00;-1.00;-1.00;102667;1268;1012693;-73
2022/10/06 04:10:47;;;;;;;13.40;5.60;;;;;;;-128.00;-1.00;-1.00;102567;1268;1010737;-75
2022/10/06 04:13:36;;;;;;;11.60;5.40;;;;;;;-128.00;-1.00;-1.00;102592;1267;1013734;-76
2022/10/06 04:16:32;;;;;;;10.60;4.90;;;;;;;-128.00;-1.00;-1.00;102806;1268;1013149;-77
2022/10/06 04:19:20;;;;;;;10.80;4.50;;;;;;;-128.00;-1.00;-1.00;102618;1267;1013354;-76
2022/10/06 04:22:11;;;;;;;12.00;5.30;;;;;;;-128.00;-1.00;-1.00;102556;1267;1012389;-75
2022/10/06 04:24:59;;;;;;;11.80;4.70;;;;;;;-128.00;-1.00;-1.00;102578;1267;1010510;-76
2022/10/06 04:27:48;;;;;;;10.00;5.20;;;;;;;-128.00;-1.00;-1.00;102802;1267;1012796;-74
2022/10/06 04:30:35;;;;;;;11.70;5.30;;;;;;;-128.00;-1.00;-1.00;102590;1267;1013927;-75
2022/10/06 04:33:24;;;;;;;9.60;4.80;;;;;;;-128.00;-1.00;-1.00;102825;1267;1016273;-74
2022/10/06 04:36:21;;;;;;;10.10;4.50;;;;;;;-128.00;-1.00;-1.00;102753;1267;1013429;-76
2022/10/06 04:39:11;;;;;;;8.10;4.60;;;;;;;-128.00;-1.00;-1.00;102563;1267;1010343;-75
2022/10/06 04:42:02;;;;;;;8.80;4.00;;;;;;;-128.00;-1.00;-1.00;102635;1268;1013837;-74
2022/10/06 04:44:51;;;;;;;10.50;4.50;;;;;;;-128.00;-1.00;-1.00;102953;1267;1016330;-75
2022/10/06 04:47:40;;;;;;;10.10;4.60;;;;;;;-128.00;-1.00;-1.00;102768;1267;1015046;-74
2022/10/06 04:50:29;;;;;;;10.00;4.00;;;;;;;-128.00;-1.00;-1.00;102669;1267;1012592;-73
2022/10/06 04:53:27;;;;;;;12.20;4.70;;;;;;;-128.00;-1.00;-1.00;103214;1268;1010142;-75
2022/10/06 04:56:30;;;;;;;10.00;4.50;;;;;;;-128.00;-1.00;-1.00;102755;1270;1011940;-77
2022/10/06 05:00:21;;;;;;;10.30;4.20;;;;;;;-128.00;-1.00;-1.00;103017;1268;1013484;-78
2022/10/06 05:02:33;;;;;;;10.60;4.30;;;;;;;-128.00;-1.00;-1.00;103018;1269;1013340;-75
2022/10/06 05:05:21;;;;;;;10.50;4.50;;;;;;;-128.00;-1.00;-1.00;102799;1270;1014717;-75
2022/10/06 05:08:11;;;;;;;11.80;4.70;;;;;;;-128.00;-1.00;-1.00;102684;1267;1010053;-75
2022/10/06 05:11:01;;;;;;;9.00;4.40;;;;;;;-128.00;-1.00;-1.00;102605;1268;1011639;-76
2022/10/06 05:13:53;;;;;;;11.30;4.80;;;;;;;-128.00;-1.00;-1.00;102910;1267;1013103;-76
2022/10/06 05:16:44;;;;;;;10.70;4.70;;;;;;;-128.00;-1.00;-1.00;102766;1267;1013701;-75
2022/10/06 05:19:32;;;;;;;9.50;4.50;;;;;;;12.13;94.83;99828.59;105415;1268;74256;-75
2022/10/06 05:22:22;;;;;;;9.70;5.00;;;;;;;12.08;95.31;99835.23;105869;1267;61204;-75
2022/10/06 05:25:10;;;;;;;8.80;4.30;;;;;;;12.06;95.32;99836.31;105336;1268;60434;-74
2022/10/06 05:27:58;;;;;;;12.00;4.80;;;;;;;12.02;95.79;99840.74;105726;1267;74033;-73
2022/10/06 05:31:01;;;;;;;10.30;4.70;;;;;;;-128.00;-1.00;-1.00;102782;1267;1015849;-75
2022/10/06 05:33:50;;;;;;;10.20;4.70;;;;;;;-128.00;-1.00;-1.00;102765;1267;1013634;-75
2022/10/06 05:36:38;;;;;;;10.00;4.30;;;;;;;-128.00;-1.00;-1.00;102689;1268;1010564;-75
2022/10/06 05:39:27;;;;;;;10.90;5.00;;;;;;;-128.00;-1.00;-1.00;102682;1267;1012288;-76
2022/10/06 05:42:16;;;;;;;8.70;4.30;;;;;;;-128.00;-1.00;-1.00;102742;1267;1013989;-75
2022/10/06 05:45:05;;;;;;;10.00;4.50;;;;;;;-128.00;-1.00;-1.00;102737;1267;1013669;-74
2022/10/06 05:47:53;;;;;;;12.30;4.50;;;;;;;-128.00;-1.00;-1.00;102643;1267;1013157;-76
2022/10/06 05:50:41;;;;;;;13.50;4.40;;;;;;;-128.00;-1.00;-1.00;102918;1267;1010311;-77
2022/10/06 05:53:31;;;;;;;15.10;6.70;;;;;;;-128.00;-1.00;-1.00;102948;1267;1011286;-80
2022/10/06 05:56:26;;;;;;;11.00;5.40;;;;;;;-128.00;-1.00;-1.00;103010;1267;1013044;-76
2022/10/06 05:59:14;;;;;;;9.00;4.40;;;;;;;-128.00;-1.00;-1.00;103029;1267;1012749;-77
2022/10/06 06:02:02;;;;;;;9.20;4.90;;;;;;;-128.00;-1.00;-1.00;102754;1267;1013391;-78
2022/10/06 06:04:56;;;;;;;10.60;4.60;;;;;;;-128.00;-1.00;-1.00;102663;1267;1010178;-78
2022/10/06 06:07:44;;;;;;;9.70;4.10;;;;;;;-128.00;-1.00;-1.00;102702;1267;1011575;-77
2022/10/06 06:10:32;;;;;;;12.80;4.70;;;;;;;-128.00;-1.00;-1.00;102683;1267;1013865;-78
2022/10/06 06:13:21;;;;;;;10.70;5.30;;;;;;;-43.21;53.95;59954.61;104275;1267;1013131;-74
2022/10/06 06:16:18;;;;;;;10.20;4.20;;;;;;;-71.48;35.72;39968.69;103873;1268;1002690;-76
2022/10/06 06:19:08;;;;;;;10.80;4.10;;;;;;;-128.00;-1.00;-1.00;102724;1267;1011345;-75
2022/10/06 06:21:57;;;;;;;9.80;4.40;;;;;;;-128.00;-1.00;-1.00;103257;1267;1011064;-74
2022/10/06 06:24:46;;;;;;;12.70;4.80;;;;;;;-128.00;-1.00;-1.00;102741;1270;1013467;-75
2022/10/06 06:27:34;;;;;;;10.90;4.40;;;;;;;-128.00;-1.00;-1.00;102804;1270;1012147;-76
2022/10/06 06:30:24;;;;;;;9.20;3.70;;;;;;;-128.00;-1.00;-1.00;102826;1270;1016638;-74
2022/10/06 06:33:12;;;;;;;8.60;3.50;;;;;;;-128.00;-1.00;-1.00;102826;1269;1010480;-74
2022/10/06 06:36:02;;;;;;;9.10;3.60;;;;;;;-128.00;-1.00;-1.00;102784;1270;1011112;-74
2022/10/06 06:38:53;;;;;;;10.40;4.40;;;;;;;-128.00;-1.00;-1.00;102877;1267;1012987;-74
2022/10/06 06:41:44;;;;;;;9.30;3.30;;;;;;;-128.00;-1.00;-1.00;102681;1267;1012840;-76
2022/10/06 06:44:54;;;;;;;8.70;3.60;;;;;;;-128.00;-1.00;-1.00;102716;1267;1013830;-74
2022/10/06 06:47:58;;;;;;;8.80;3.20;;;;;;;-128.00;-1.00;-1.00;102708;1267;1009450;-74
2022/10/06 06:50:57;;;;;;;10.00;3.60;;;;;;;-128.00;-1.00;-1.00;102868;1267;1010776;-74
2022/10/06 06:53:45;;;;;;;8.10;3.10;;;;;;;-128.00;-1.00;-1.00;102723;1267;1012388;-76
2022/10/06 06:56:34;;;;;;;8.40;2.50;;;;;;;-128.00;-1.00;-1.00;102899;1267;1014492;-75
2022/10/06 06:59:24;;;;;;;10.90;2.40;;;;;;;-128.00;-1.00;-1.00;102842;1267;1013899;-75
2022/10/06 07:02:14;;;;;;;10.00;2.50;;;;;;;-128.00;-1.00;-1.00;102990;1267;1009636;-75
2022/10/06 07:05:05;;;;;;;7.20;2.20;;;;;;;-128.00;-1.00;-1.00;102852;1267;1011575;-76
2022/10/06 07:07:53;;;;;;;7.70;2.70;;;;;;;-128.00;-1.00;-1.00;102689;1267;1012849;-74
2022/10/06 07:10:43;;;;;;;8.00;2.50;;;;;;;-128.00;-1.00;-1.00;102699;1266;1012599;-75
2022/10/06 07:13:32;;;;;;;17.40;2.40;;;;;;;-128.00;-1.00;-1.00;102663;1268;1012794;-74
2022/10/06 07:25:44;;;;;;;6.30;1.90;;;;;;;-128.00;-1.00;-1.00;102802;1266;1012435;-76
2022/10/06 07:28:33;;;;;;;6.30;1.70;;;;;;;-128.00;-1.00;-1.00;102913;1267;1013642;-75
2022/10/06 07:31:21;;;;;;;8.00;1.90;;;;;;;-128.00;-1.00;-1.00;103042;1267;1010299;-74
2022/10/06 07:34:10;;;;;;;7.60;1.60;;;;;;;-128.00;-1.00;-1.00;102853;1267;1013004;-74
2022/10/06 07:36:58;;;;;;;6.90;1.60;;;;;;;-128.00;-1.00;-1.00;102625;1267;1013485;-74
2022/10/06 07:39:53;;;;;;;9.90;4.40;;;;;;;-128.00;-1.00;-1.00;102680;1267;1016247;-74
2022/10/06 07:42:50;;;;;;;8.10;2.90;;;;;;;-128.00;-1.00;-1.00;102635;1267;1013617;-72
2022/10/06 07:45:48;;;;;;;8.10;2.20;;;;;;;-128.00;-1.00;-1.00;102949;1267;1011403;-73
2022/10/06 07:48:56;;;;;;;7.30;1.70;;;;;;;-128.00;-1.00;-1.00;102905;1267;1013952;-74
2022/10/06 07:51:45;;;;;;;6.50;1.40;;;;;;;-128.00;-1.00;-1.00;102581;1268;1013178;-75
2022/10/06 07:54:33;;;;;;;7.70;1.70;;;;;;;-128.00;-1.00;-1.00;103050;1267;1015456;-76
2022/10/06 07:57:45;;;;;;;7.30;1.20;;;;;;;-128.00;-1.00;-1.00;102901;1267;1013429;-73
2022/10/06 08:00:34;;;;;;;5.80;1.20;;;;;;;-128.00;-1.00;-1.00;102688;1267;1010192;-74
2022/10/06 08:03:21;;;;;;;5.90;1.00;;;;;;;-128.00;-1.00;-1.00;102640;1268;1011424;-76
2022/10/06 08:06:16;;;;;;;7.50;1.30;;;;;;;-128.00;-1.00;-1.00;102658;1267;1015914;-75
2022/10/06 08:09:06;;;;;;;5.70;1.20;;;;;;;-128.00;-1.00;-1.00;102613;1268;1012721;-74
2022/10/06 08:11:53;;;;;;;6.30;0.80;;;;;;;-128.00;-1.00;-1.00;102550;1267;1013981;-74
2022/10/06 08:14:42;;;;;;;7.30;1.30;;;;;;;-128.00;-1.00;-1.00;102686;1268;1010231;-75
2022/10/06 08:17:32;;;;;;;7.30;1.20;;;;;;;-128.00;-1.00;-1.00;102887;1267;1013483;-73
2022/10/06 08:20:23;;;;;;;5.50;1.10;;;;;;;-128.00;-1.00;-1.00;102836;1267;1012709;-74
2022/10/06 08:23:12;;;;;;;5.00;1.10;;;;;;;-128.00;-1.00;-1.00;102680;1267;1012696;-74
2022/10/06 08:26:00;;;;;;;7.30;1.40;;;;;;;-128.00;-1.00;-1.00;102612;1270;1013565;-75
2022/10/06 08:28:52;;;;;;;6.50;1.10;;;;;;;-128.00;-1.00;-1.00;102504;1267;1010833;-74
2022/10/06 08:31:40;;;;;;;5.50;1.10;;;;;;;-128.00;-1.00;-1.00;102961;1267;1010900;-76
2022/10/06 08:34:28;;;;;;;7.60;1.10;;;;;;;-128.00;-1.00;-1.00;102978;1267;1013409;-73
2022/10/06 08:37:22;;;;;;;6.40;1.10;;;;;;;-128.00;-1.00;-1.00;102702;1267;1012818;-74
2022/10/06 08:40:14;;;;;;;6.40;1.20;;;;;;;-128.00;-1.00;-1.00;102717;1266;1016517;-74
2022/10/06 08:43:02;;;;;;;7.90;1.30;;;;;;;-128.00;-1.00;-1.00;102645;1267;1009966;-73
2022/10/06 08:45:58;;;;;;;7.70;1.70;;;;;;;-128.00;-1.00;-1.00;102726;1267;1011679;-73
2022/10/06 08:48:46;;;;;;;9.30;1.70;;;;;;;-128.00;-1.00;-1.00;102634;1267;1013966;-73
2022/10/06 08:52:04;;;;;;;6.50;1.10;;;;;;;-128.00;-1.00;-1.00;102633;1267;1013413;-74
2022/10/06 08:55:19;;;;;;;6.60;1.20;;;;;;;-128.00;-1.00;-1.00;102636;1267;1015898;-72
2022/10/06 08:58:49;;;;;;;6.80;1.30;;;;;;;-128.00;-1.00;-1.00;102611;1267;1010232;-74
2022/10/06 09:01:47;;;;;;;7.40;1.40;;;;;;;-128.00;-1.00;-1.00;102840;1267;1011225;-75
2022/10/06 09:04:34;;;;;;;6.90;1.30;;;;;;;-128.00;-1.00;-1.00;102640;1267;1012777;-75
2022/10/06 09:08:01;;;;;;;6.80;1.00;;;;;;;-128.00;-1.00;-1.00;102617;1267;1013029;-74
2022/10/06 09:11:13;;;;;;;9.00;1.30;;;;;;;-128.00;-1.00;-1.00;102830;1267;1013826;-74
2022/10/06 09:14:16;;;;;;;7.60;1.30;;;;;;;-128.00;-1.00;-1.00;103020;1267;1013129;-75
2022/10/06 09:17:13;;;;;;;9.80;1.80;;;;;;;-128.00;-1.00;-1.00;102669;1267;1014208;-75
2022/10/06 09:20:19;;;;;;;9.30;1.10;;;;;;;-128.00;-1.00;-1.00;102825;1267;1013251;-75
2022/10/06 09:23:46;;;;;;;5.60;1.40;;;;;;;-128.00;-1.00;-1.00;102947;1267;1013233;-72
2022/10/06 09:26:31;;;;;;;8.90;1.60;;;;;;;-128.00;-1.00;-1.00;102795;1267;1013474;-75
2022/10/06 09:29:19;;;;;;;6.10;1.10;;;;;;;-128.00;-1.00;-1.00;102789;1267;1010511;-74
2022/10/06 09:32:09;;;;;;;9.70;1.60;;;;;;;-128.00;-1.00;-1.00;103084;1270;1014511;-73
2022/10/06 09:35:03;;;;;;;6.80;1.60;;;;;;;-128.00;-1.00;-1.00;102802;1270;1012826;-73
2022/10/06 09:38:03;;;;;;;6.70;1.40;;;;;;;-99.74;17.32;19984.46;102882;1270;1014046;-75
2022/10/06 09:40:56;;;;;;;6.60;1.10;;;;;;;-128.00;-1.00;-1.00;102924;1270;1013768;-74
2022/10/06 09:44:16;;;;;;;5.90;1.30;;;;;;;-128.00;-1.00;-1.00;102661;1270;1012511;-74
2022/10/06 09:47:37;;;;;;;7.90;1.50;;;;;;;-128.00;-1.00;-1.00;102653;1271;1011719;-74
2022/10/06 09:50:27;;;;;;;8.60;1.80;;;;;;;-128.00;-1.00;-1.00;102815;1270;1012822;-74
2022/10/06 09:53:15;;;;;;;8.20;1.60;;;;;;;-128.00;-1.00;-1.00;102843;1270;1012726;-74
2022/10/06 09:56:08;;;;;;;6.10;1.20;;;;;;;-128.00;-1.00;-1.00;102693;1270;1014350;-73
2022/10/06 09:58:59;;;;;;;7.60;1.40;;;;;;;-128.00;-1.00;-1.00;102747;1270;1010178;-77
2022/10/06 10:01:56;;;;;;;7.80;1.40;;;;;;;-128.00;-1.00;-1.00;102836;1269;1011476;-74
2022/10/06 10:04:44;;;;;;;7.30;1.10;;;;;;;-128.00;-1.00;-1.00;102672;1270;1015940;-74
2022/10/06 10:07:38;;;;;;;6.30;1.30;;;;;;;-128.00;-1.00;-1.00;102549;1270;1013963;-74
2022/10/06 10:10:25;;;;;;;10.30;1.70;;;;;;;-128.00;-1.00;-1.00;102628;1270;1013735;-72
2022/10/06 10:13:23;;;;;;;7.40;1.40;;;;;;;-128.00;-1.00;-1.00;102638;1270;1010812;-73
2022/10/06 10:16:15;;;;;;;8.70;1.80;;;;;;;-128.00;-1.00;-1.00;102775;1270;1011571;-73
2022/10/06 10:19:04;;;;;;;10.30;1.70;;;;;;;-128.00;-1.00;-1.00;102699;1270;1012963;-75
2022/10/06 10:21:55;;;;;;;7.40;1.20;;;;;;;-128.00;-1.00;-1.00;102625;1270;1013553;-74
2022/10/06 10:24:47;;;;;;;6.70;1.10;;;;;;;-36.16;19.48;60231.27;104142;1270;1015456;-73
2022/10/06 10:27:52;;;;;;;8.30;1.40;;;;;;;25.35;32.13;100381.52;105228;1270;60483;-75
2022/10/06 10:30:49;;;;;;;10.10;1.40;;;;;;;26.41;30.82;100379.77;105454;1267;60477;-75
2022/10/06 10:34:15;;;;;;;7.80;1.30;;;;;;;27.65;29.29;100383.53;105517;1266;75515;-74
2022/10/06 10:37:23;;;;;;;7.50;1.20;;;;;;;28.64;27.23;100394.16;105603;1267;68072;-74
2022/10/06 10:40:29;;;;;;;7.90;1.20;;;;;;;28.52;26.98;100408.58;105554;1267;74282;-74
2022/10/06 10:43:34;;;;;;;7.10;1.30;;;;;;;28.61;27.10;100410.60;105283;1267;60353;-74
2022/10/06 10:46:35;;;;;;;8.30;1.30;;;;;;;28.23;27.33;100410.99;105520;1267;62345;-73
2022/10/06 10:49:33;;;;;;;8.90;1.60;;;;;;;26.97;28.63;100412.44;105607;1267;75493;-73
2022/10/06 10:52:29;;;;;;;8.40;1.40;;;;;;;27.60;28.18;100414.73;105318;1265;68106;-74
2022/10/06 10:55:33;;;;;;;6.90;1.30;;;;;;;28.66;27.07;100414.58;105342;1267;73809;-74
2022/10/06 10:58:37;;;;;;;7.70;1.40;;;;;;;29.56;25.96;100417.18;105335;1267;60514;-73
2022/10/06 11:01:44;;;;;;;7.70;1.10;;;;;;;29.59;25.85;100416.94;105200;1267;60467;-72
2022/10/06 11:04:34;;;;;;;9.30;1.50;;;;;;;27.72;27.31;100417.72;105234;1267;74825;-73
2022/10/06 11:07:47;;;;;;;13.00;2.00;;;;;;;26.09;29.51;100438.67;105428;1267;67813;-73
2022/10/06 11:10:51;;;;;;;11.00;1.70;;;;;;;24.29;31.94;100450.95;105606;1267;72894;-74
2022/10/06 11:13:48;;;;;;;9.30;1.80;;;;;;;22.80;34.27;100453.23;105500;1267;60413;-74
2022/10/06 11:17:05;;;;;;;8.50;1.40;;;;;;;22.77;35.41;100464.60;105224;1267;61198;-73
2022/10/06 11:20:07;;;;;;;9.10;1.50;;;;;;;23.44;34.41;100458.11;105397;1270;73833;-73
2022/10/06 11:23:01;;;;;;;9.20;1.50;;;;;;;23.74;34.13;100456.56;105373;1267;66856;-71
2022/10/06 11:26:33;;;;;;;7.30;1.60;;;;;;;23.72;33.81;100466.20;105286;1268;73709;-74
2022/10/06 11:29:36;;;;;;;15.70;1.60;;;;;;;22.33;36.11;100463.88;105301;1267;60582;-74
2022/10/06 11:32:45;;;;;;;8.40;1.50;;;;;;;21.04;38.08;100464.92;105219;1268;61295;-73
2022/10/06 11:35:40;;;;;;;9.60;1.90;;;;;;;19.97;40.80;100466.27;105487;1267;72668;-74
2022/10/06 11:39:06;;;;;;;9.30;1.50;;;;;;;19.97;40.97;100469.70;105273;1268;68631;-73
2022/10/06 11:42:11;;;;;;;9.50;1.70;;;;;;;20.69;39.86;100469.03;105580;1267;73123;-75
2022/10/06 11:45:12;;;;;;;7.90;1.60;;;;;;;21.35;39.30;100466.52;105193;1268;60566;-72
2022/10/06 11:48:09;;;;;;;10.60;1.20;;;;;;;21.72;38.48;100475.77;105354;1267;60975;-71
2022/10/06 11:51:23;;;;;;;8.70;1.50;;;;;;;21.70;38.42;100481.36;105311;1268;74047;-72
2022/10/06 11:54:42;;;;;;;8.30;1.60;;;;;;;21.04;39.48;100479.83;105233;1267;68996;-71
2022/10/06 11:57:33;;;;;;;8.60;1.70;;;;;;;20.23;40.98;100487.52;105277;1268;74355;-73
2022/10/06 12:00:20;;;;;;;9.20;2.10;;;;;;;19.66;42.26;100497.01;105088;1271;60465;-74
2022/10/06 12:03:27;;;;;;;7.40;1.50;;;;;;;19.17;43.02;100500.16;105290;1268;60542;-72
2022/10/06 12:06:52;;;;;;;12.00;2.20;;;;;;;18.82;44.35;100503.67;105482;1268;75531;-73
2022/10/06 12:09:45;;;;;;;11.40;1.50;;;;;;;18.79;45.22;100504.81;105722;1267;67093;-74
2022/10/06 12:12:41;;;;;;;8.20;1.60;;;;;;;18.72;45.70;100512.80;105481;1270;71584;-73
2022/10/06 12:15:41;;;;;;;9.30;1.50;;;;;;;18.61;46.41;100522.25;105192;1267;60581;-73
2022/10/06 12:19:06;;;;;;;7.90;1.30;;;;;;;18.28;47.41;100519.19;105300;1268;60568;-74
2022/10/06 12:22:29;;;;;;;10.10;1.50;;;;;;;18.08;47.92;100533.98;105238;1271;75856;-71
2022/10/06 12:25:58;;;;;;;10.20;1.40;;;;;;;18.01;47.87;100537.52;104976;1271;69692;-72
2022/10/06 12:29:17;;;;;;;8.20;1.30;;;;;;;17.73;48.43;100538.54;105034;1273;73160;-72
2022/10/06 12:32:30;;;;;;;9.40;1.60;;;;;;;17.72;48.74;100543.87;105498;1271;60661;-73
2022/10/06 12:35:33;;;;;;;9.00;1.30;;;;;;;17.65;48.22;100542.92;105432;1271;60437;-74
2022/10/06 12:38:30;;;;;;;10.50;1.60;;;;;;;17.55;48.15;100546.39;105036;1271;73221;-73
2022/10/06 12:41:55;;;;;;;10.20;1.40;;;;;;;17.44;48.05;100548.17;105077;1271;69596;-73
2022/10/06 12:44:50;;;;;;;9.30;1.30;;;;;;;17.45;48.01;100546.34;105112;1271;71473;-72
2022/10/06 12:47:43;;;;;;;8.90;1.40;;;;;;;17.46;47.95;100562.52;105107;1273;60385;-69
2022/10/06 12:50:31;;;;;;;10.60;1.60;;;;;;;17.39;46.86;100569.68;105059;1273;60372;-74
2022/10/06 12:53:31;;;;;;;8.70;1.20;;;;;;;17.29;47.06;100572.63;104368;1271;1003160;-74
2022/10/06 12:56:40;;;;;;;7.30;1.60;;;;;;;16.98;47.81;100580.63;105255;1270;69646;-74
2022/10/06 12:59:37;;;;;;;10.80;1.80;;;;;;;16.58;48.84;100583.52;105259;1270;72713;-74
2022/10/06 13:02:27;;;;;;;10.10;1.80;;;;;;;16.32;49.79;100594.02;105158;1270;60505;-75
2022/10/06 13:05:15;;;;;;;10.00;1.80;;;;;;;16.09;50.61;100590.59;105715;1270;60691;-74
2022/10/06 13:08:19;;;;;;;11.40;1.80;;;;;;;15.92;51.48;100591.61;104016;1270;1016330;-74
2022/10/06 13:11:27;;;;;;;9.20;1.70;;;;;;;15.70;52.46;100595.39;105595;1270;68923;-74
2022/10/06 13:14:15;;;;;;;11.10;1.60;;;;;;;15.41;52.71;100603.52;105635;1270;220958;-72
2022/10/06 13:17:02;;;;;;;12.40;1.70;;;;;;;15.32;53.29;100603.02;105453;1270;60442;-75
2022/10/06 13:19:52;;;;;;;8.90;1.50;;;;;;;15.41;53.37;100602.65;105634;1270;60559;-75
2022/10/06 13:22:40;;;;;;;13.80;1.80;;;;;;;15.45;53.28;100604.94;105242;1270;74637;-76
2022/10/06 13:25:54;;;;;;;9.70;1.70;;;;;;;15.43;52.71;100606.57;105592;1270;67632;-73
2022/10/06 13:28:41;;;;;;;9.20;1.80;;;;;;;15.43;52.86;100613.18;104957;1276;72607;-72